sensor_id;sensor_type;location;lat;lon;timestamp;P1;durP1;ratioP1;P2;durP2;ratioP2
40320;SDS011;26027;51.454;6.628;2022-11-09T00:01:36;1.92;;;1.10;;
40320;SDS011;26027;51.454;6.628;2022-11-09T00:04:03;1.00;;;1.00;;
40320;SDS011;26027;51.454;6.628;2022-11-09T00:06:30;0.90;;;0.90;;
40320;SDS011;26027;51.454;6.628;2022-11-09T00:08:56;1.00;;;1.00;;
40320;SDS011;26027;51.454;6.628;2022-11-09T00:11:22;0.90;;;0.90;;
40320;SDS011;26027;51.454;6.628;2022-11-09T00:13:48;0.90;;;0.90;;
40320;SDS011;26027;51.454;6.628;2022-11-09T00:16:16;0.90;;;0.90;;
40320;SDS011;26027;51.454;6.628;2022-11-09T00:18:42;0.90;;;0.85;;
40320;SDS011;26027;51.454;6.628;2022-11-09T00:21:13;1.02;;;1.02;;
40320;SDS011;26027;51.454;6.628;2022-11-09T00:23:39;1.00;;;1.00;;
40320;SDS011;26027;51.454;6.628;2022-11-09T00:26:06;1.00;;;0.95;;
40320;SDS011;26027;51.454;6.628;2022-11-09T00:28:32;1.10;;;1.10;;
40320;SDS011;26027;51.454;6.628;2022-11-09T00:31:02;1.05;;;1.00;;
40320;SDS011;26027;51.454;6.628;2022-11-09T00:33:29;1.00;;;1.00;;
40320;SDS011;26027;51.454;6.628;2022-11-09T00:35:55;1.10;;;1.00;;
40320;SDS011;26027;51.454;6.628;2022-11-09T00:38:21;0.90;;;0.90;;
40320;SDS011;26027;51.454;6.628;2022-11-09T00:40:47;0.98;;;0.90;;
40320;SDS011;26027;51.454;6.628;2022-11-09T00:43:13;0.98;;;0.98;;
40320;SDS011;26027;51.454;6.628;2022-11-09T00:45:39;1.17;;;1.10;;
40320;SDS011;26027;51.454;6.628;2022-11-09T00:48:06;0.77;;;0.77;;
40320;SDS011;26027;51.454;6.628;2022-11-09T00:50:32;1.10;;;1.00;;
40320;SDS011;26027;51.454;6.628;2022-11-09T00:52:58;0.82;;;0.82;;
40320;SDS011;26027;51.454;6.628;2022-11-09T00:55:24;1.02;;;0.98;;
40320;SDS011;26027;51.454;6.628;2022-11-09T00:57:50;0.98;;;0.98;;
40320;SDS011;26027;51.454;6.628;2022-11-09T01:00:20;1.00;;;1.00;;
40320;SDS011;26027;51.454;6.628;2022-11-09T01:02:48;0.98;;;0.90;;
40320;SDS011;26027;51.454;6.628;2022-11-09T01:05:14;1.10;;;1.00;;
40320;SDS011;26027;51.454;6.628;2022-11-09T01:07:40;0.77;;;0.77;;
40320;SDS011;26027;51.454;6.628;2022-11-09T01:10:07;1.13;;;1.13;;
40320;SDS011;26027;51.454;6.628;2022-11-09T01:12:33;0.88;;;0.88;;
40320;SDS011;26027;51.454;6.628;2022-11-09T01:14:59;1.08;;;1.05;;
40320;SDS011;26027;51.454;6.628;2022-11-09T01:17:25;0.90;;;0.90;;
40320;SDS011;26027;51.454;6.628;2022-11-09T01:19:51;1.00;;;1.00;;
40320;SDS011;26027;51.454;6.628;2022-11-09T01:22:17;0.93;;;0.88;;
40320;SDS011;26027;51.454;6.628;2022-11-09T01:24:44;0.90;;;0.90;;
40320;SDS011;26027;51.454;6.628;2022-11-09T01:27:10;0.90;;;0.90;;
40320;SDS011;26027;51.454;6.628;2022-11-09T01:29:37;0.80;;;0.80;;
40320;SDS011;26027;51.454;6.628;2022-11-09T01:32:03;1.00;;;0.90;;
40320;SDS011;26027;51.454;6.628;2022-11-09T01:34:29;1.00;;;1.00;;
40320;SDS011;26027;51.454;6.628;2022-11-09T01:36:55;0.90;;;0.90;;
40320;SDS011;26027;51.454;6.628;2022-11-09T01:39:21;0.90;;;0.90;;
40320;SDS011;26027;51.454;6.628;2022-11-09T01:41:47;0.95;;;0.93;;
40320;SDS011;26027;51.454;6.628;2022-11-09T01:44:16;1.05;;;1.00;;
40320;SDS011;26027;51.454;6.628;2022-11-09T01:47:04;0.80;;;0.80;;
40320;SDS011;26027;51.454;6.628;2022-11-09T01:51:56;1.20;;;1.10;;
40320;SDS011;26027;51.454;6.628;2022-11-09T01:54:30;0.90;;;0.90;;
40320;SDS011;26027;51.454;6.628;2022-11-09T01:57:00;1.05;;;1.00;;
40320;SDS011;26027;51.454;6.628;2022-11-09T01:59:28;0.90;;;0.90;;
40320;SDS011;26027;51.454;6.628;2022-11-09T02:01:54;0.77;;;0.77;;
40320;SDS011;26027;51.454;6.628;2022-11-09T02:04:25;1.23;;;0.90;;
40320;SDS011;26027;51.454;6.628;2022-11-09T02:06:52;0.75;;;0.75;;
40320;SDS011;26027;51.454;6.628;2022-11-09T02:09:25;0.80;;;0.80;;
40320;SDS011;26027;51.454;6.628;2022-11-09T02:11:52;1.10;;;1.05;;
40320;SDS011;26027;51.454;6.628;2022-11-09T02:14:18;1.00;;;1.00;;
40320;SDS011;26027;51.454;6.628;2022-11-09T02:16:45;1.10;;;1.00;;
40320;SDS011;26027;51.454;6.628;2022-11-09T02:19:12;1.20;;;1.00;;
40320;SDS011;26027;51.454;6.628;2022-11-09T02:21:38;0.93;;;0.93;;
40320;SDS011;26027;51.454;6.628;2022-11-09T02:24:04;0.93;;;0.93;;
40320;SDS011;26027;51.454;6.628;2022-11-09T02:26:32;1.00;;;1.00;;
40320;SDS011;26027;51.454;6.628;2022-11-09T02:28:59;0.98;;;0.93;;
40320;SDS011;26027;51.454;6.628;2022-11-09T02:31:28;0.77;;;0.77;;
40320;SDS011;26027;51.454;6.628;2022-11-09T02:33:59;0.70;;;0.70;;
40320;SDS011;26027;51.454;6.628;2022-11-09T02:36:26;0.90;;;0.90;;
40320;SDS011;26027;51.454;6.628;2022-11-09T02:38:53;0.90;;;0.90;;
40320;SDS011;26027;51.454;6.628;2022-11-09T02:41:20;0.75;;;0.75;;
40320;SDS011;26027;51.454;6.628;2022-11-09T02:43:46;1.67;;;1.08;;
40320;SDS011;26027;51.454;6.628;2022-11-09T02:46:12;0.82;;;0.82;;
40320;SDS011;26027;51.454;6.628;2022-11-09T02:48:45;0.85;;;0.85;;
40320;SDS011;26027;51.454;6.628;2022-11-09T02:51:11;1.02;;;0.95;;
40320;SDS011;26027;51.454;6.628;2022-11-09T02:53:37;0.80;;;0.80;;
40320;SDS011;26027;51.454;6.628;2022-11-09T02:56:03;0.75;;;0.75;;
40320;SDS011;26027;51.454;6.628;2022-11-09T02:58:29;0.82;;;0.82;;
40320;SDS011;26027;51.454;6.628;2022-11-09T03:00:55;0.90;;;0.90;;
40320;SDS011;26027;51.454;6.628;2022-11-09T03:03:21;0.95;;;0.90;;
40320;SDS011;26027;51.454;6.628;2022-11-09T03:05:47;0.82;;;0.82;;
40320;SDS011;26027;51.454;6.628;2022-11-09T03:08:13;1.63;;;0.90;;
40320;SDS011;26027;51.454;6.628;2022-11-09T03:10:39;0.80;;;0.80;;
40320;SDS011;26027;51.454;6.628;2022-11-09T03:13:05;0.77;;;0.77;;
40320;SDS011;26027;51.454;6.628;2022-11-09T03:15:31;0.77;;;0.77;;
40320;SDS011;26027;51.454;6.628;2022-11-09T03:17:57;0.90;;;0.90;;
40320;SDS011;26027;51.454;6.628;2022-11-09T03:20:23;0.95;;;0.70;;
40320;SDS011;26027;51.454;6.628;2022-11-09T03:22:49;0.85;;;0.85;;
40320;SDS011;26027;51.454;6.628;2022-11-09T03:25:15;0.82;;;0.82;;
40320;SDS011;26027;51.454;6.628;2022-11-09T03:27:41;0.85;;;0.85;;
40320;SDS011;26027;51.454;6.628;2022-11-09T03:30:07;1.17;;;0.98;;
40320;SDS011;26027;51.454;6.628;2022-11-09T03:32:34;0.63;;;0.63;;
40320;SDS011;26027;51.454;6.628;2022-11-09T03:35:00;0.70;;;0.70;;
40320;SDS011;26027;51.454;6.628;2022-11-09T03:37:26;0.90;;;0.90;;
40320;SDS011;26027;51.454;6.628;2022-11-09T03:39:52;0.60;;;0.60;;
40320;SDS011;26027;51.454;6.628;2022-11-09T03:42:18;0.95;;;0.95;;
40320;SDS011;26027;51.454;6.628;2022-11-09T03:44:44;0.80;;;0.80;;
40320;SDS011;26027;51.454;6.628;2022-11-09T03:47:10;0.75;;;0.75;;
40320;SDS011;26027;51.454;6.628;2022-11-09T03:49:36;0.70;;;0.70;;
40320;SDS011;26027;51.454;6.628;2022-11-09T03:52:02;0.77;;;0.77;;
40320;SDS011;26027;51.454;6.628;2022-11-09T03:54:28;0.90;;;0.90;;
40320;SDS011;26027;51.454;6.628;2022-11-09T03:56:54;1.02;;;1.02;;
40320;SDS011;26027;51.454;6.628;2022-11-09T03:59:20;0.70;;;0.70;;
40320;SDS011;26027;51.454;6.628;2022-11-09T04:01:46;0.68;;;0.68;;
40320;SDS011;26027;51.454;6.628;2022-11-09T04:04:12;0.82;;;0.82;;
40320;SDS011;26027;51.454;6.628;2022-11-09T04:06:38;0.90;;;0.90;;
40320;SDS011;26027;51.454;6.628;2022-11-09T04:09:04;0.95;;;0.93;;
40320;SDS011;26027;51.454;6.628;2022-11-09T04:11:30;0.80;;;0.80;;
40320;SDS011;26027;51.454;6.628;2022-11-09T04:13:56;0.80;;;0.80;;
40320;SDS011;26027;51.454;6.628;2022-11-09T04:16:22;0.70;;;0.70;;
40320;SDS011;26027;51.454;6.628;2022-11-09T04:18:48;0.80;;;0.80;;
40320;SDS011;26027;51.454;6.628;2022-11-09T04:21:14;0.77;;;0.77;;
40320;SDS011;26027;51.454;6.628;2022-11-09T04:23:40;1.00;;;1.00;;
40320;SDS011;26027;51.454;6.628;2022-11-09T04:26:06;0.90;;;0.90;;
40320;SDS011;26027;51.454;6.628;2022-11-09T04:28:32;0.80;;;0.80;;
40320;SDS011;26027;51.454;6.628;2022-11-09T04:30:59;0.77;;;0.77;;
40320;SDS011;26027;51.454;6.628;2022-11-09T04:33:25;0.70;;;0.70;;
40320;SDS011;26027;51.454;6.628;2022-11-09T04:35:51;0.70;;;0.70;;
40320;SDS011;26027;51.454;6.628;2022-11-09T04:38:17;0.88;;;0.88;;
40320;SDS011;26027;51.454;6.628;2022-11-09T04:40:43;1.60;;;0.98;;
40320;SDS011;26027;51.454;6.628;2022-11-09T04:43:10;0.80;;;0.80;;
40320;SDS011;26027;51.454;6.628;2022-11-09T04:45:36;0.80;;;0.80;;
40320;SDS011;26027;51.454;6.628;2022-11-09T04:48:03;0.70;;;0.70;;
40320;SDS011;26027;51.454;6.628;2022-11-09T04:50:30;0.55;;;0.55;;
40320;SDS011;26027;51.454;6.628;2022-11-09T04:55:31;0.98;;;0.88;;
40320;SDS011;26027;51.454;6.628;2022-11-09T04:57:57;0.90;;;0.90;;
40320;SDS011;26027;51.454;6.628;2022-11-09T05:00:23;0.80;;;0.80;;
40320;SDS011;26027;51.454;6.628;2022-11-09T05:02:51;0.73;;;0.73;;
40320;SDS011;26027;51.454;6.628;2022-11-09T05:05:17;0.80;;;0.80;;
40320;SDS011;26027;51.454;6.628;2022-11-09T05:07:43;0.70;;;0.70;;
40320;SDS011;26027;51.454;6.628;2022-11-09T05:10:09;1.00;;;1.00;;
40320;SDS011;26027;51.454;6.628;2022-11-09T05:12:35;0.65;;;0.65;;
40320;SDS011;26027;51.454;6.628;2022-11-09T05:15:01;0.75;;;0.75;;
40320;SDS011;26027;51.454;6.628;2022-11-09T05:17:27;0.90;;;0.90;;
40320;SDS011;26027;51.454;6.628;2022-11-09T05:19:53;0.77;;;0.77;;
40320;SDS011;26027;51.454;6.628;2022-11-09T05:22:19;0.63;;;0.63;;
40320;SDS011;26027;51.454;6.628;2022-11-09T05:25:03;0.60;;;0.60;;
40320;SDS011;26027;51.454;6.628;2022-11-09T05:27:29;0.90;;;0.90;;
40320;SDS011;26027;51.454;6.628;2022-11-09T05:29:55;0.73;;;0.73;;
40320;SDS011;26027;51.454;6.628;2022-11-09T05:32:21;0.90;;;0.90;;
40320;SDS011;26027;51.454;6.628;2022-11-09T05:34:47;0.77;;;0.77;;
40320;SDS011;26027;51.454;6.628;2022-11-09T05:37:13;0.65;;;0.65;;
40320;SDS011;26027;51.454;6.628;2022-11-09T05:39:41;0.65;;;0.65;;
40320;SDS011;26027;51.454;6.628;2022-11-09T05:42:07;0.80;;;0.80;;
40320;SDS011;26027;51.454;6.628;2022-11-09T05:44:34;0.60;;;0.60;;
40320;SDS011;26027;51.454;6.628;2022-11-09T05:47:00;0.73;;;0.73;;
40320;SDS011;26027;51.454;6.628;2022-11-09T05:49:26;0.90;;;0.90;;
40320;SDS011;26027;51.454;6.628;2022-11-09T05:51:52;0.75;;;0.65;;
40320;SDS011;26027;51.454;6.628;2022-11-09T05:54:18;0.70;;;0.70;;
40320;SDS011;26027;51.454;6.628;2022-11-09T05:56:44;0.80;;;0.80;;
40320;SDS011;26027;51.454;6.628;2022-11-09T05:59:10;0.73;;;0.73;;
40320;SDS011;26027;51.454;6.628;2022-11-09T06:01:36;0.75;;;0.75;;
40320;SDS011;26027;51.454;6.628;2022-11-09T06:04:02;0.82;;;0.82;;
40320;SDS011;26027;51.454;6.628;2022-11-09T06:06:28;0.82;;;0.82;;
40320;SDS011;26027;51.454;6.628;2022-11-09T06:08:54;0.65;;;0.65;;
40320;SDS011;26027;51.454;6.628;2022-11-09T06:11:20;0.75;;;0.75;;
40320;SDS011;26027;51.454;6.628;2022-11-09T06:13:46;0.70;;;0.70;;
40320;SDS011;26027;51.454;6.628;2022-11-09T06:16:13;0.88;;;0.88;;
40320;SDS011;26027;51.454;6.628;2022-11-09T06:18:39;0.77;;;0.77;;
40320;SDS011;26027;51.454;6.628;2022-11-09T06:21:05;0.70;;;0.70;;
40320;SDS011;26027;51.454;6.628;2022-11-09T06:23:31;0.68;;;0.68;;
40320;SDS011;26027;51.454;6.628;2022-11-09T06:25:59;0.80;;;0.80;;
40320;SDS011;26027;51.454;6.628;2022-11-09T06:28:25;0.68;;;0.68;;
40320;SDS011;26027;51.454;6.628;2022-11-09T06:30:52;0.70;;;0.70;;
40320;SDS011;26027;51.454;6.628;2022-11-09T06:33:18;0.80;;;0.80;;
40320;SDS011;26027;51.454;6.628;2022-11-09T06:35:44;0.60;;;0.60;;
40320;SDS011;26027;51.454;6.628;2022-11-09T06:38:10;0.70;;;0.70;;
40320;SDS011;26027;51.454;6.628;2022-11-09T06:40:36;1.10;;;0.90;;
40320;SDS011;26027;51.454;6.628;2022-11-09T06:43:03;0.70;;;0.70;;
40320;SDS011;26027;51.454;6.628;2022-11-09T06:45:29;0.90;;;0.90;;
40320;SDS011;26027;51.454;6.628;2022-11-09T06:47:58;0.80;;;0.80;;
40320;SDS011;26027;51.454;6.628;2022-11-09T06:50:25;0.85;;;0.70;;
40320;SDS011;26027;51.454;6.628;2022-11-09T06:52:55;0.80;;;0.80;;
40320;SDS011;26027;51.454;6.628;2022-11-09T06:55:22;0.70;;;0.70;;
40320;SDS011;26027;51.454;6.628;2022-11-09T06:57:48;0.80;;;0.80;;
40320;SDS011;26027;51.454;6.628;2022-11-09T07:00:14;1.40;;;0.88;;
40320;SDS011;26027;51.454;6.628;2022-11-09T07:02:41;1.48;;;0.80;;
40320;SDS011;26027;51.454;6.628;2022-11-09T07:05:07;1.77;;;0.80;;
40320;SDS011;26027;51.454;6.628;2022-11-09T07:07:33;1.42;;;0.93;;
40320;SDS011;26027;51.454;6.628;2022-11-09T07:09:59;0.80;;;0.80;;
40320;SDS011;26027;51.454;6.628;2022-11-09T07:12:25;0.77;;;0.77;;
40320;SDS011;26027;51.454;6.628;2022-11-09T07:14:51;0.95;;;0.70;;
40320;SDS011;26027;51.454;6.628;2022-11-09T07:17:17;0.80;;;0.80;;
40320;SDS011;26027;51.454;6.628;2022-11-09T07:19:43;1.42;;;0.80;;
40320;SDS011;26027;51.454;6.628;2022-11-09T07:22:09;1.25;;;0.70;;
40320;SDS011;26027;51.454;6.628;2022-11-09T07:24:35;1.70;;;0.98;;
40320;SDS011;26027;51.454;6.628;2022-11-09T07:27:01;2.25;;;0.80;;
40320;SDS011;26027;51.454;6.628;2022-11-09T07:29:27;0.65;;;0.65;;
40320;SDS011;26027;51.454;6.628;2022-11-09T07:31:53;2.65;;;0.85;;
40320;SDS011;26027;51.454;6.628;2022-11-09T07:34:19;1.58;;;0.80;;
40320;SDS011;26027;51.454;6.628;2022-11-09T07:36:45;3.65;;;0.98;;
40320;SDS011;26027;51.454;6.628;2022-11-09T07:39:11;1.20;;;0.90;;
40320;SDS011;26027;51.454;6.628;2022-11-09T07:41:37;3.42;;;0.90;;
40320;SDS011;26027;51.454;6.628;2022-11-09T07:44:03;1.48;;;0.93;;
40320;SDS011;26027;51.454;6.628;2022-11-09T07:46:29;1.45;;;0.93;;
40320;SDS011;26027;51.454;6.628;2022-11-09T07:48:56;3.30;;;1.00;;
40320;SDS011;26027;51.454;6.628;2022-11-09T07:51:22;1.20;;;0.82;;
40320;SDS011;26027;51.454;6.628;2022-11-09T07:53:48;2.92;;;0.95;;
40320;SDS011;26027;51.454;6.628;2022-11-09T07:56:14;5.45;;;1.10;;
40320;SDS011;26027;51.454;6.628;2022-11-09T07:58:40;1.35;;;1.00;;
40320;SDS011;26027;51.454;6.628;2022-11-09T08:01:07;1.50;;;0.80;;
40320;SDS011;26027;51.454;6.628;2022-11-09T08:03:33;1.90;;;1.02;;
40320;SDS011;26027;51.454;6.628;2022-11-09T08:06:00;4.85;;;1.27;;
40320;SDS011;26027;51.454;6.628;2022-11-09T08:08:26;1.90;;;0.90;;
40320;SDS011;26027;51.454;6.628;2022-11-09T08:10:54;3.63;;;1.08;;
40320;SDS011;26027;51.454;6.628;2022-11-09T08:13:20;3.53;;;1.02;;
40320;SDS011;26027;51.454;6.628;2022-11-09T08:15:46;5.00;;;1.50;;
40320;SDS011;26027;51.454;6.628;2022-11-09T08:18:15;2.83;;;0.98;;
40320;SDS011;26027;51.454;6.628;2022-11-09T08:20:41;1.65;;;1.10;;
40320;SDS011;26027;51.454;6.628;2022-11-09T08:23:09;4.82;;;1.15;;
40320;SDS011;26027;51.454;6.628;2022-11-09T08:25:35;1.92;;;1.10;;
40320;SDS011;26027;51.454;6.628;2022-11-09T08:28:01;0.98;;;0.88;;
40320;SDS011;26027;51.454;6.628;2022-11-09T08:30:28;3.42;;;1.00;;
40320;SDS011;26027;51.454;6.628;2022-11-09T08:32:54;1.60;;;1.10;;
40320;SDS011;26027;51.454;6.628;2022-11-09T08:35:20;2.72;;;1.10;;
40320;SDS011;26027;51.454;6.628;2022-11-09T08:37:47;1.52;;;1.05;;
40320;SDS011;26027;51.454;6.628;2022-11-09T08:40:14;3.30;;;1.08;;
40320;SDS011;26027;51.454;6.628;2022-11-09T08:42:41;3.88;;;1.23;;
40320;SDS011;26027;51.454;6.628;2022-11-09T08:45:07;2.55;;;1.00;;
40320;SDS011;26027;51.454;6.628;2022-11-09T08:47:33;4.35;;;1.00;;
40320;SDS011;26027;51.454;6.628;2022-11-09T08:50:00;3.63;;;1.10;;
40320;SDS011;26027;51.454;6.628;2022-11-09T08:52:28;3.30;;;1.40;;
40320;SDS011;26027;51.454;6.628;2022-11-09T08:54:54;2.35;;;1.20;;
40320;SDS011;26027;51.454;6.628;2022-11-09T08:57:20;2.13;;;1.30;;
40320;SDS011;26027;51.454;6.628;2022-11-09T08:59:46;4.50;;;1.10;;
40320;SDS011;26027;51.454;6.628;2022-11-09T09:02:12;4.85;;;1.20;;
40320;SDS011;26027;51.454;6.628;2022-11-09T09:04:39;4.20;;;1.40;;
40320;SDS011;26027;51.454;6.628;2022-11-09T09:07:05;2.80;;;1.67;;
40320;SDS011;26027;51.454;6.628;2022-11-09T09:09:31;5.35;;;1.10;;
40320;SDS011;26027;51.454;6.628;2022-11-09T09:11:58;3.92;;;1.10;;
40320;SDS011;26027;51.454;6.628;2022-11-09T09:14:24;3.50;;;1.30;;
40320;SDS011;26027;51.454;6.628;2022-11-09T09:16:50;3.88;;;1.40;;
40320;SDS011;26027;51.454;6.628;2022-11-09T09:19:16;6.47;;;1.15;;
40320;SDS011;26027;51.454;6.628;2022-11-09T09:21:42;2.35;;;1.20;;
40320;SDS011;26027;51.454;6.628;2022-11-09T09:24:09;2.42;;;1.17;;
40320;SDS011;26027;51.454;6.628;2022-11-09T09:26:35;3.28;;;1.20;;
40320;SDS011;26027;51.454;6.628;2022-11-09T09:29:01;3.97;;;1.27;;
40320;SDS011;26027;51.454;6.628;2022-11-09T09:31:27;3.33;;;1.10;;
40320;SDS011;26027;51.454;6.628;2022-11-09T09:33:53;5.30;;;1.63;;
40320;SDS011;26027;51.454;6.628;2022-11-09T09:36:20;3.50;;;1.33;;
40320;SDS011;26027;51.454;6.628;2022-11-09T09:38:49;1.85;;;1.20;;
40320;SDS011;26027;51.454;6.628;2022-11-09T09:41:25;4.32;;;1.30;;
40320;SDS011;26027;51.454;6.628;2022-11-09T09:43:53;2.97;;;1.10;;
40320;SDS011;26027;51.454;6.628;2022-11-09T09:49:14;4.00;;;1.05;;
40320;SDS011;26027;51.454;6.628;2022-11-09T09:51:44;3.05;;;1.10;;
40320;SDS011;26027;51.454;6.628;2022-11-09T09:54:19;1.77;;;1.02;;
40320;SDS011;26027;51.454;6.628;2022-11-09T09:56:46;5.68;;;1.58;;
40320;SDS011;26027;51.454;6.628;2022-11-09T10:01:46;7.43;;;1.38;;
40320;SDS011;26027;51.454;6.628;2022-11-09T10:04:20;4.78;;;1.33;;
40320;SDS011;26027;51.454;6.628;2022-11-09T10:06:59;1.67;;;1.00;;
40320;SDS011;26027;51.454;6.628;2022-11-09T10:09:31;3.72;;;1.35;;
40320;SDS011;26027;51.454;6.628;2022-11-09T10:12:08;3.17;;;1.25;;
40320;SDS011;26027;51.454;6.628;2022-11-09T10:14:52;4.60;;;1.38;;
40320;SDS011;26027;51.454;6.628;2022-11-09T10:22:25;4.40;;;1.60;;
40320;SDS011;26027;51.454;6.628;2022-11-09T10:25:03;5.25;;;1.30;;
40320;SDS011;26027;51.454;6.628;2022-11-09T10:27:40;2.33;;;0.82;;
40320;SDS011;26027;51.454;6.628;2022-11-09T10:30:11;8.07;;;1.40;;
40320;SDS011;26027;51.454;6.628;2022-11-09T10:32:38;8.45;;;1.40;;
40320;SDS011;26027;51.454;6.628;2022-11-09T10:35:13;5.10;;;1.65;;
40320;SDS011;26027;51.454;6.628;2022-11-09T10:37:41;4.47;;;1.30;;
40320;SDS011;26027;51.454;6.628;2022-11-09T10:42:34;7.57;;;1.50;;
40320;SDS011;26027;51.454;6.628;2022-11-09T10:45:01;4.47;;;1.38;;
40320;SDS011;26027;51.454;6.628;2022-11-09T10:47:48;4.53;;;1.25;;
40320;SDS011;26027;51.454;6.628;2022-11-09T10:52:43;5.47;;;1.30;;
40320;SDS011;26027;51.454;6.628;2022-11-09T10:55:19;5.00;;;1.52;;
40320;SDS011;26027;51.454;6.628;2022-11-09T10:58:30;2.40;;;1.20;;
40320;SDS011;26027;51.454;6.628;2022-11-09T11:00:36;4.43;;;1.58;;
40320;SDS011;26027;51.454;6.628;2022-11-09T11:03:35;3.28;;;1.33;;
40320;SDS011;26027;51.454;6.628;2022-11-09T11:05:58;7.13;;;1.35;;
40320;SDS011;26027;51.454;6.628;2022-11-09T11:08:26;9.05;;;1.60;;
40320;SDS011;26027;51.454;6.628;2022-11-09T11:11:03;4.97;;;1.60;;
40320;SDS011;26027;51.454;6.628;2022-11-09T11:13:30;6.28;;;1.42;;
40320;SDS011;26027;51.454;6.628;2022-11-09T11:15:56;4.72;;;1.40;;
40320;SDS011;26027;51.454;6.628;2022-11-09T11:18:23;2.88;;;1.10;;
40320;SDS011;26027;51.454;6.628;2022-11-09T11:21:11;2.28;;;1.13;;
40320;SDS011;26027;51.454;6.628;2022-11-09T11:23:38;2.35;;;1.25;;
40320;SDS011;26027;51.454;6.628;2022-11-09T11:26:19;1.98;;;1.10;;
40320;SDS011;26027;51.454;6.628;2022-11-09T11:28:49;3.40;;;1.25;;
40320;SDS011;26027;51.454;6.628;2022-11-09T11:31:29;3.15;;;1.10;;
40320;SDS011;26027;51.454;6.628;2022-11-09T11:33:55;1.73;;;1.10;;
40320;SDS011;26027;51.454;6.628;2022-11-09T11:36:32;3.55;;;1.02;;
40320;SDS011;26027;51.454;6.628;2022-11-09T11:39:23;3.83;;;1.20;;
40320;SDS011;26027;51.454;6.628;2022-11-09T12:00:34;1.33;;;0.90;;
40320;SDS011;26027;51.454;6.628;2022-11-09T12:08:32;2.45;;;0.98;;
40320;SDS011;26027;51.454;6.628;2022-11-09T12:11:07;2.28;;;1.02;;
40320;SDS011;26027;51.454;6.628;2022-11-09T12:16:12;2.67;;;1.15;;
40320;SDS011;26027;51.454;6.628;2022-11-09T12:31:28;4.03;;;1.13;;
40320;SDS011;26027;51.454;6.628;2022-11-09T12:34:09;3.45;;;1.10;;
40320;SDS011;26027;51.454;6.628;2022-11-09T12:36:41;2.60;;;1.05;;
40320;SDS011;26027;51.454;6.628;2022-11-09T12:41:35;3.08;;;1.55;;
40320;SDS011;26027;51.454;6.628;2022-11-09T12:44:08;2.58;;;1.20;;
40320;SDS011;26027;51.454;6.628;2022-11-09T12:46:37;3.42;;;1.40;;
40320;SDS011;26027;51.454;6.628;2022-11-09T12:49:05;4.35;;;1.10;;
40320;SDS011;26027;51.454;6.628;2022-11-09T12:51:32;3.67;;;1.20;;
40320;SDS011;26027;51.454;6.628;2022-11-09T12:53:58;3.53;;;1.20;;
40320;SDS011;26027;51.454;6.628;2022-11-09T12:56:30;3.40;;;1.48;;
40320;SDS011;26027;51.454;6.628;2022-11-09T12:59:19;3.53;;;1.35;;
40320;SDS011;26027;51.454;6.628;2022-11-09T13:01:47;2.90;;;1.33;;
40320;SDS011;26027;51.454;6.628;2022-11-09T13:04:15;2.72;;;1.17;;
40320;SDS011;26027;51.454;6.628;2022-11-09T13:06:42;4.35;;;1.30;;
40320;SDS011;26027;51.454;6.628;2022-11-09T13:09:28;2.95;;;1.25;;
40320;SDS011;26027;51.454;6.628;2022-11-09T13:11:54;3.95;;;1.08;;
40320;SDS011;26027;51.454;6.628;2022-11-09T13:17:50;2.72;;;1.20;;
40320;SDS011;26027;51.454;6.628;2022-11-09T13:24:52;2.17;;;1.08;;
40320;SDS011;26027;51.454;6.628;2022-11-09T13:29:58;3.25;;;1.40;;
40320;SDS011;26027;51.454;6.628;2022-11-09T13:34:54;3.78;;;1.27;;
40320;SDS011;26027;51.454;6.628;2022-11-09T13:43:12;2.65;;;0.85;;
40320;SDS011;26027;51.454;6.628;2022-11-09T13:45:45;1.70;;;1.10;;
40320;SDS011;26027;51.454;6.628;2022-11-09T13:50:50;4.03;;;1.05;;
40320;SDS011;26027;51.454;6.628;2022-11-09T13:55:53;5.75;;;1.02;;
40320;SDS011;26027;51.454;6.628;2022-11-09T13:58:23;8.38;;;1.20;;
40320;SDS011;26027;51.454;6.628;2022-11-09T14:00:49;5.38;;;1.65;;
40320;SDS011;26027;51.454;6.628;2022-11-09T14:03:22;3.97;;;1.20;;
40320;SDS011;26027;51.454;6.628;2022-11-09T14:05:52;3.38;;;1.25;;
40320;SDS011;26027;51.454;6.628;2022-11-09T14:08:23;3.13;;;1.23;;
40320;SDS011;26027;51.454;6.628;2022-11-09T14:10:53;1.73;;;1.05;;
40320;SDS011;26027;51.454;6.628;2022-11-09T14:15:57;5.40;;;1.38;;
40320;SDS011;26027;51.454;6.628;2022-11-09T14:23:46;3.05;;;1.35;;
40320;SDS011;26027;51.454;6.628;2022-11-09T14:26:20;3.72;;;1.33;;
40320;SDS011;26027;51.454;6.628;2022-11-09T14:28:46;3.75;;;1.25;;
40320;SDS011;26027;51.454;6.628;2022-11-09T14:31:22;4.13;;;1.13;;
40320;SDS011;26027;51.454;6.628;2022-11-09T14:34:02;2.47;;;1.13;;
40320;SDS011;26027;51.454;6.628;2022-11-09T14:36:29;4.75;;;1.33;;
40320;SDS011;26027;51.454;6.628;2022-11-09T14:38:56;6.03;;;1.27;;
40320;SDS011;26027;51.454;6.628;2022-11-09T14:41:24;2.30;;;1.30;;
40320;SDS011;26027;51.454;6.628;2022-11-09T14:43:55;3.20;;;1.20;;
40320;SDS011;26027;51.454;6.628;2022-11-09T14:46:26;3.55;;;1.48;;
40320;SDS011;26027;51.454;6.628;2022-11-09T14:48:57;5.05;;;1.23;;
40320;SDS011;26027;51.454;6.628;2022-11-09T14:51:32;6.25;;;1.35;;
40320;SDS011;26027;51.454;6.628;2022-11-09T14:53:59;2.45;;;1.23;;
40320;SDS011;26027;51.454;6.628;2022-11-09T14:56:25;3.80;;;1.45;;
40320;SDS011;26027;51.454;6.628;2022-11-09T14:58:52;4.10;;;1.23;;
40320;SDS011;26027;51.454;6.628;2022-11-09T15:03:44;2.53;;;1.10;;
40320;SDS011;26027;51.454;6.628;2022-11-09T15:06:12;5.28;;;1.25;;
40320;SDS011;26027;51.454;6.628;2022-11-09T15:08:47;7.68;;;1.60;;
40320;SDS011;26027;51.454;6.628;2022-11-09T15:11:14;7.35;;;1.70;;
40320;SDS011;26027;51.454;6.628;2022-11-09T15:13:40;2.55;;;1.45;;
40320;SDS011;26027;51.454;6.628;2022-11-09T15:16:06;5.88;;;1.50;;
40320;SDS011;26027;51.454;6.628;2022-11-09T15:18:33;4.00;;;1.15;;
40320;SDS011;26027;51.454;6.628;2022-11-09T15:23:43;2.88;;;0.93;;
40320;SDS011;26027;51.454;6.628;2022-11-09T15:31:59;3.25;;;1.23;;
40320;SDS011;26027;51.454;6.628;2022-11-09T15:34:27;2.25;;;0.93;;
40320;SDS011;26027;51.454;6.628;2022-11-09T15:36:54;3.60;;;1.10;;
40320;SDS011;26027;51.454;6.628;2022-11-09T15:39:21;3.22;;;1.20;;
40320;SDS011;26027;51.454;6.628;2022-11-09T15:41:48;4.15;;;1.45;;
40320;SDS011;26027;51.454;6.628;2022-11-09T15:44:14;3.88;;;1.30;;
40320;SDS011;26027;51.454;6.628;2022-11-09T15:46:45;7.85;;;1.60;;
40320;SDS011;26027;51.454;6.628;2022-11-09T15:49:24;2.92;;;1.10;;
40320;SDS011;26027;51.454;6.628;2022-11-09T15:51:51;3.63;;;1.00;;
40320;SDS011;26027;51.454;6.628;2022-11-09T15:54:17;2.83;;;1.30;;
40320;SDS011;26027;51.454;6.628;2022-11-09T15:56:44;2.33;;;1.10;;
40320;SDS011;26027;51.454;6.628;2022-11-09T16:02:02;4.25;;;1.60;;
40320;SDS011;26027;51.454;6.628;2022-11-09T16:04:28;3.50;;;1.30;;
40320;SDS011;26027;51.454;6.628;2022-11-09T16:06:54;3.17;;;1.33;;
40320;SDS011;26027;51.454;6.628;2022-11-09T16:09:20;4.30;;;1.17;;
40320;SDS011;26027;51.454;6.628;2022-11-09T16:11:49;2.22;;;1.30;;
40320;SDS011;26027;51.454;6.628;2022-11-09T16:14:15;3.95;;;1.33;;
40320;SDS011;26027;51.454;6.628;2022-11-09T16:16:44;5.03;;;1.25;;
40320;SDS011;26027;51.454;6.628;2022-11-09T16:19:13;3.58;;;1.40;;
40320;SDS011;26027;51.454;6.628;2022-11-09T16:21:39;3.45;;;1.40;;
40320;SDS011;26027;51.454;6.628;2022-11-09T16:24:05;4.95;;;1.15;;
40320;SDS011;26027;51.454;6.628;2022-11-09T16:26:31;3.17;;;1.35;;
40320;SDS011;26027;51.454;6.628;2022-11-09T16:28:57;2.00;;;1.13;;
40320;SDS011;26027;51.454;6.628;2022-11-09T16:31:24;3.90;;;1.20;;
40320;SDS011;26027;51.454;6.628;2022-11-09T16:33:50;5.97;;;1.38;;
40320;SDS011;26027;51.454;6.628;2022-11-09T16:36:18;4.35;;;1.20;;
40320;SDS011;26027;51.454;6.628;2022-11-09T16:38:45;4.22;;;1.20;;
40320;SDS011;26027;51.454;6.628;2022-11-09T16:41:12;2.88;;;1.10;;